createdAt,value
2017-03-14T00:00:32.004Z,4.94
2017-03-14T00:01:42.211Z,4.85
2017-03-14T00:02:52.062Z,4.86
2017-03-14T00:04:01.877Z,4.89
2017-03-14T00:05:11.692Z,4.85
2017-03-14T00:06:21.896Z,4.96
2017-03-14T00:07:31.706Z,4.99
2017-03-14T00:08:41.535Z,5.04
2017-03-14T00:09:51.346Z,5.28
2017-03-14T00:11:00.393Z,5.17
2017-03-14T00:12:10.260Z,5.12
2017-03-14T00:13:19.687Z,4.99
2017-03-14T00:14:29.881Z,4.96
2017-03-14T00:15:39.682Z,4.86
2017-03-14T00:16:48.751Z,4.84
2017-03-14T00:17:58.765Z,4.77
2017-03-14T00:19:08.958Z,4.73
2017-03-14T00:20:18.000Z,4.78
2017-03-14T00:21:27.808Z,4.72
2017-03-14T00:22:37.623Z,4.7
2017-03-14T00:23:47.050Z,4.62
2017-03-14T00:24:56.882Z,4.72
2017-03-14T00:26:06.696Z,4.72
2017-03-14T00:27:16.121Z,4.62
2017-03-14T00:28:25.932Z,4.58
2017-03-14T00:29:35.750Z,4.67
2017-03-14T00:30:45.181Z,4.67
2017-03-14T00:31:54.994Z,4.67
2017-03-14T00:33:05.182Z,4.85
2017-03-14T00:34:14.615Z,4.86
2017-03-14T00:35:24.809Z,4.91
2017-03-14T00:36:34.228Z,5.15
2017-03-14T00:37:44.422Z,5.17
2017-03-14T00:38:54.614Z,5.12
2017-03-14T00:40:04.812Z,5.15
2017-03-14T00:41:14.620Z,5.13
2017-03-14T00:42:24.431Z,5.21
2017-03-14T00:43:33.862Z,5.2
2017-03-14T00:44:43.293Z,5.2
2017-03-14T00:45:53.111Z,5.27
2017-03-14T00:47:03.180Z,5.22
2017-03-14T00:48:12.983Z,5.15
2017-03-14T00:49:22.405Z,5.42
2017-03-14T00:50:32.220Z,5.31
2017-03-14T00:51:42.416Z,5.39
2017-03-14T00:52:52.229Z,5.31
2017-03-14T00:54:02.432Z,5.31
2017-03-14T00:55:12.255Z,5.43
2017-03-14T00:56:22.445Z,5.35
2017-03-14T00:57:31.485Z,5.35
2017-03-14T00:58:41.672Z,5.24
2017-03-14T00:59:51.883Z,5.25
2017-03-14T01:01:02.086Z,5.22
2017-03-14T01:02:11.896Z,5.18
2017-03-14T01:03:21.327Z,5.18
2017-03-14T01:04:31.007Z,5.18
2017-03-14T01:05:41.201Z,5.18
2017-03-14T01:06:50.245Z,5.2
2017-03-14T01:08:00.846Z,5.17
2017-03-14T01:09:10.754Z,5.18
2017-03-14T01:10:20.219Z,5.27
2017-03-14T01:11:30.417Z,5.3
2017-03-14T01:12:40.999Z,5.27
2017-03-14T01:13:50.037Z,5.28
2017-03-14T01:14:58.684Z,5.3
2017-03-14T01:16:07.739Z,5.3
2017-03-14T01:17:17.659Z,5.18
2017-03-14T01:18:27.501Z,5.2
2017-03-14T01:19:37.350Z,5.06
2017-03-14T01:20:47.614Z,5.06
2017-03-14T01:21:57.726Z,5.03
2017-03-14T01:23:07.648Z,5.06
2017-03-14T01:24:17.501Z,5.03
2017-03-14T01:25:26.933Z,4.94
2017-03-14T01:26:36.747Z,4.97
2017-03-14T01:27:46.554Z,4.92
2017-03-14T01:28:56.387Z,4.84
2017-03-14T01:30:06.292Z,4.78
2017-03-14T01:31:16.136Z,4.69
2017-03-14T01:32:25.275Z,4.69
2017-03-14T01:33:35.347Z,4.6
2017-03-14T01:34:45.589Z,4.59
2017-03-14T01:35:55.782Z,4.69
2017-03-14T01:37:05.219Z,4.58
2017-03-14T01:38:15.419Z,4.63
2017-03-14T01:39:25.666Z,4.65
2017-03-14T01:40:35.474Z,4.54
2017-03-14T01:41:45.663Z,4.58
2017-03-14T01:42:55.600Z,4.58
2017-03-14T01:44:05.055Z,4.55
2017-03-14T01:45:14.504Z,4.63
2017-03-14T01:46:24.312Z,4.58
2017-03-14T01:47:34.569Z,4.66
2017-03-14T01:48:44.759Z,4.65
2017-03-14T01:49:54.217Z,4.6
2017-03-14T01:51:04.328Z,4.52
2017-03-14T01:52:14.186Z,4.55
2017-03-14T01:53:24.049Z,4.47
2017-03-14T01:54:33.490Z,4.41
2017-03-14T01:55:43.679Z,4.33
2017-03-14T01:56:53.521Z,4.29
2017-03-14T01:58:03.720Z,4.37
2017-03-14T01:59:13.589Z,4.37
2017-03-14T02:00:23.776Z,4.44
2017-03-14T02:01:33.586Z,4.52
2017-03-14T02:02:43.416Z,4.45
2017-03-14T02:03:53.999Z,4.58
2017-03-14T02:05:04.222Z,4.6
2017-03-14T02:06:14.080Z,4.52
2017-03-14T02:07:24.275Z,4.54
2017-03-14T02:08:34.520Z,4.4
2017-03-14T02:09:44.391Z,4.42
2017-03-14T02:10:53.885Z,4.47
2017-03-14T02:12:03.695Z,4.44
2017-03-14T02:13:13.555Z,4.37
2017-03-14T02:14:24.141Z,4.4
2017-03-14T02:15:34.005Z,4.33
2017-03-14T02:16:44.203Z,4.34
2017-03-14T02:17:53.256Z,4.34
2017-03-14T02:19:02.698Z,4.37
2017-03-14T02:20:13.176Z,4.2
2017-03-14T02:21:22.605Z,4.26
2017-03-14T02:22:32.414Z,4.22
2017-03-14T02:23:42.689Z,4.15
2017-03-14T02:24:52.902Z,4.24
2017-03-14T02:26:03.479Z,4.15
2017-03-14T02:27:13.675Z,4.12
2017-03-14T02:28:23.106Z,4.24
2017-03-14T02:29:32.523Z,4.24
2017-03-14T02:30:42.335Z,4.26
2017-03-14T02:31:52.414Z,4.23
2017-03-14T02:33:01.068Z,4.26
2017-03-14T02:34:09.816Z,4.15
2017-03-14T02:35:19.243Z,4.16
2017-03-14T02:36:28.733Z,4.09
2017-03-14T02:37:39.344Z,4.22
2017-03-14T02:38:49.549Z,4.18
2017-03-14T02:39:59.366Z,4.22
2017-03-14T02:41:09.587Z,4.2
2017-03-14T02:42:19.776Z,4.09
2017-03-14T02:43:29.202Z,4.22
2017-03-14T02:44:39.406Z,4.29
2017-03-14T02:45:50.039Z,4.27
2017-03-14T02:46:59.156Z,4.34
2017-03-14T02:48:08.192Z,4.32
2017-03-14T02:49:18.587Z,4.15
2017-03-14T02:50:28.406Z,4.23
2017-03-14T02:51:37.476Z,4.18
2017-03-14T02:52:47.319Z,4.15
2017-03-14T02:53:57.543Z,4.27
2017-03-14T02:55:07.375Z,4.12
2017-03-14T02:56:16.098Z,4.22
2017-03-14T02:57:25.945Z,4.16
2017-03-14T02:58:35.789Z,4.14
2017-03-14T02:59:45.630Z,4.24
2017-03-14T03:00:55.701Z,4.26
2017-03-14T03:02:05.529Z,4.14
2017-03-14T03:03:15.339Z,4.29
2017-03-14T03:04:25.534Z,4.33
2017-03-14T03:05:35.009Z,4.24
2017-03-14T03:06:44.521Z,4.36
2017-03-14T03:07:54.385Z,4.41
2017-03-14T03:09:03.056Z,4.4
2017-03-14T03:10:13.246Z,4.54
2017-03-14T03:11:23.443Z,4.58
2017-03-14T03:12:32.757Z,4.52
2017-03-14T03:13:42.185Z,4.5
2017-03-14T03:14:51.608Z,4.58
2017-03-14T03:16:01.032Z,4.62
2017-03-14T03:17:10.464Z,4.62
2017-03-14T03:18:21.043Z,4.66
2017-03-14T03:19:31.267Z,4.58
2017-03-14T03:20:40.690Z,4.55
2017-03-14T03:21:50.884Z,4.69
2017-03-14T03:23:00.695Z,4.62
2017-03-14T03:24:10.156Z,4.69
2017-03-14T03:25:19.979Z,4.72
2017-03-14T03:26:30.171Z,4.84
2017-03-14T03:27:40.365Z,4.75
2017-03-14T03:28:50.174Z,4.73
2017-03-14T03:30:00.237Z,4.85
2017-03-14T03:31:09.277Z,4.67
2017-03-14T03:32:19.463Z,4.73
2017-03-14T03:33:28.896Z,4.65
2017-03-14T03:34:39.083Z,4.67
2017-03-14T03:35:49.284Z,4.73
2017-03-14T03:36:59.094Z,4.72
2017-03-14T03:38:08.516Z,4.78
2017-03-14T03:39:17.964Z,4.86
2017-03-14T03:40:28.583Z,4.85
2017-03-14T03:41:38.642Z,4.75
2017-03-14T03:42:48.463Z,4.84
2017-03-14T03:43:58.269Z,4.96
2017-03-14T03:45:08.463Z,5.03
2017-03-14T03:46:17.886Z,5.02
2017-03-14T03:47:28.469Z,4.94
2017-03-14T03:48:38.298Z,5
2017-03-14T03:49:48.109Z,4.89
2017-03-14T03:50:57.534Z,4.92
2017-03-14T03:52:06.960Z,4.89
2017-03-14T03:53:16.634Z,4.89
2017-03-14T03:54:26.840Z,4.88
2017-03-14T03:55:37.027Z,4.92
2017-03-14T03:56:46.837Z,4.88
2017-03-14T03:57:56.268Z,4.86
2017-03-14T03:59:06.082Z,4.89
2017-03-14T04:00:15.512Z,4.75
2017-03-14T04:01:24.164Z,4.82
2017-03-14T04:02:33.971Z,4.73
2017-03-14T04:03:44.170Z,4.73
2017-03-14T04:04:54.230Z,4.69
2017-03-14T04:06:04.044Z,4.88
2017-03-14T04:07:14.239Z,4.78
2017-03-14T04:08:23.665Z,4.78
2017-03-14T04:09:33.860Z,4.85
2017-03-14T04:10:43.287Z,4.89
2017-03-14T04:11:53.094Z,4.75
2017-03-14T04:13:02.135Z,4.91
2017-03-14T04:14:11.182Z,4.99
2017-03-14T04:15:21.749Z,4.89
2017-03-14T04:16:31.568Z,4.84
2017-03-14T04:17:41.376Z,4.86
2017-03-14T04:18:51.581Z,4.86
2017-03-14T04:20:01.009Z,4.8
2017-03-14T04:21:11.211Z,4.86
2017-03-14T04:22:21.658Z,4.73
2017-03-14T04:23:31.470Z,4.91
2017-03-14T04:24:41.280Z,4.77
2017-03-14T04:25:51.091Z,4.78
2017-03-14T04:27:00.136Z,4.8
2017-03-14T04:28:09.564Z,4.77
2017-03-14T04:29:19.782Z,4.75
2017-03-14T04:30:29.594Z,4.88
2017-03-14T04:31:39.406Z,4.82
2017-03-14T04:32:49.226Z,4.75
2017-03-14T04:34:00.083Z,4.77
2017-03-14T04:35:09.904Z,4.85
2017-03-14T04:36:19.705Z,4.77
2017-03-14T04:37:29.131Z,4.91
2017-03-14T04:38:39.326Z,4.75
2017-03-14T04:39:49.902Z,4.91
2017-03-14T04:40:59.726Z,5.13
2017-03-14T04:42:09.540Z,5.2
2017-03-14T04:43:19.357Z,5.27
2017-03-14T04:44:29.583Z,5.31
2017-03-14T04:45:39.267Z,5.24
2017-03-14T04:46:48.700Z,5.18
2017-03-14T04:47:58.516Z,5.09
2017-03-14T04:49:09.086Z,4.97
2017-03-14T04:50:19.281Z,5
2017-03-14T04:51:28.699Z,5
2017-03-14T04:52:38.511Z,4.91
2017-03-14T04:53:48.332Z,4.97
2017-03-14T04:54:58.527Z,4.97
2017-03-14T04:56:08.724Z,4.99
2017-03-14T04:57:18.782Z,4.96
2017-03-14T04:58:28.977Z,4.96
2017-03-14T04:59:39.556Z,4.88
2017-03-14T05:00:49.788Z,4.78
2017-03-14T05:01:59.597Z,4.86
2017-03-14T05:03:09.407Z,4.86
2017-03-14T05:04:19.213Z,4.85
2017-03-14T05:05:29.027Z,4.77
2017-03-14T05:06:38.455Z,4.8
2017-03-14T05:07:48.274Z,4.86
2017-03-14T05:08:57.949Z,4.78
2017-03-14T05:10:08.145Z,4.78
2017-03-14T05:11:17.955Z,4.72
2017-03-14T05:12:28.148Z,4.73
2017-03-14T05:13:38.728Z,4.7
2017-03-14T05:14:48.923Z,4.78
2017-03-14T05:15:58.740Z,4.89
2017-03-14T05:17:08.176Z,5.1
2017-03-14T05:18:17.991Z,5.07
2017-03-14T05:19:27.802Z,5.15
2017-03-14T05:20:37.505Z,5.42
2017-03-14T05:21:46.924Z,5.17
2017-03-14T05:22:56.734Z,5.13
2017-03-14T05:24:06.176Z,5.02
2017-03-14T05:25:15.983Z,4.96
2017-03-14T05:26:25.442Z,4.88
2017-03-14T05:27:36.015Z,4.85
2017-03-14T05:28:46.209Z,4.75
2017-03-14T05:29:56.022Z,4.82
2017-03-14T05:31:05.837Z,4.8
2017-03-14T05:32:15.897Z,4.82
2017-03-14T05:33:26.091Z,4.73
2017-03-14T05:34:35.902Z,4.78
2017-03-14T05:35:45.715Z,4.75
2017-03-14T05:36:54.754Z,4.85
2017-03-14T05:38:03.810Z,4.85
2017-03-14T05:39:12.866Z,4.75
2017-03-14T05:40:22.280Z,4.78
2017-03-14T05:41:31.701Z,4.86
2017-03-14T05:42:40.352Z,4.77
2017-03-14T05:43:49.261Z,4.88
2017-03-14T05:44:58.678Z,4.84
2017-03-14T05:46:08.877Z,4.78
2017-03-14T05:47:19.066Z,4.78
2017-03-14T05:48:28.868Z,4.88
2017-03-14T05:49:39.064Z,4.86
2017-03-14T05:50:49.265Z,4.85
2017-03-14T05:51:59.111Z,4.99
2017-03-14T05:53:08.923Z,5.04
2017-03-14T05:54:18.350Z,5
2017-03-14T05:55:28.418Z,5.15
2017-03-14T05:56:38.611Z,5.13
2017-03-14T05:57:48.419Z,5.12
2017-03-14T05:58:58.619Z,5.1
2017-03-14T06:00:08.434Z,5.09
2017-03-14T06:01:18.632Z,4.92
2017-03-14T06:02:29.210Z,4.96
2017-03-14T06:03:38.639Z,4.88
2017-03-14T06:04:48.873Z,4.84
2017-03-14T06:05:58.680Z,4.94
2017-03-14T06:07:09.124Z,4.91
2017-03-14T06:08:19.321Z,4.78
2017-03-14T06:09:28.742Z,4.91
2017-03-14T06:10:38.933Z,4.77
2017-03-14T06:11:48.783Z,4.75
2017-03-14T06:12:58.601Z,4.66
2017-03-14T06:14:08.413Z,4.72
2017-03-14T06:15:19.022Z,4.67
2017-03-14T06:16:29.215Z,4.89
2017-03-14T06:17:39.026Z,4.78
2017-03-14T06:18:49.621Z,4.91
2017-03-14T06:19:59.050Z,5
2017-03-14T06:21:09.241Z,5.09
2017-03-14T06:22:19.433Z,5.1
2017-03-14T06:23:28.865Z,5.09
2017-03-14T06:24:37.522Z,5.15
2017-03-14T06:25:47.014Z,5.21
2017-03-14T06:26:56.554Z,5.22
2017-03-14T06:28:06.012Z,5.24
2017-03-14T06:29:15.446Z,5.33
2017-03-14T06:30:25.640Z,5.39
2017-03-14T06:31:35.083Z,5.25
2017-03-14T06:32:44.558Z,5.35
2017-03-14T06:33:54.539Z,5.43
2017-03-14T06:35:04.920Z,5.36
2017-03-14T06:36:14.510Z,5.45
2017-03-14T06:37:24.434Z,5.54
2017-03-14T06:38:34.258Z,5.54
2017-03-14T06:39:44.451Z,5.63
2017-03-14T06:40:54.733Z,5.71
2017-03-14T06:42:05.145Z,5.74
2017-03-14T06:43:15.641Z,5.75
2017-03-14T06:44:25.619Z,5.91
2017-03-14T06:45:35.503Z,5.96
2017-03-14T06:46:46.265Z,5.97
2017-03-14T06:47:55.937Z,6
2017-03-14T06:49:06.042Z,6.03
2017-03-14T06:50:16.755Z,6.12
2017-03-14T06:51:26.525Z,6.12
2017-03-14T06:52:36.670Z,6.3
2017-03-14T06:53:46.269Z,6.27
2017-03-14T06:54:56.539Z,6.31
2017-03-14T06:56:06.348Z,6.33
2017-03-14T06:57:15.775Z,6.44
2017-03-14T06:58:24.432Z,6.54
2017-03-14T06:59:35.254Z,6.61
2017-03-14T07:00:45.066Z,6.64
2017-03-14T07:01:55.267Z,6.66
2017-03-14T07:03:05.086Z,6.79
2017-03-14T07:04:14.898Z,6.71
2017-03-14T07:05:24.329Z,6.84
2017-03-14T07:06:34.522Z,6.92
2017-03-14T07:07:44.338Z,6.97
2017-03-14T07:08:53.386Z,6.94
2017-03-14T07:10:02.812Z,6.98
2017-03-14T07:11:12.497Z,6.95
2017-03-14T07:12:22.313Z,6.98
2017-03-14T07:13:32.507Z,6.97
2017-03-14T07:14:42.351Z,7.05
2017-03-14T07:15:52.547Z,7.09
2017-03-14T07:17:02.746Z,7.16
2017-03-14T07:18:12.934Z,7.16
2017-03-14T07:19:23.125Z,7.23
2017-03-14T07:20:33.317Z,7.2
2017-03-14T07:21:43.905Z,7.28
2017-03-14T07:22:53.712Z,7.25
2017-03-14T07:24:02.398Z,7.3
2017-03-14T07:25:11.448Z,7.39
2017-03-14T07:26:21.646Z,7.37
2017-03-14T07:27:31.090Z,7.37
2017-03-14T07:28:41.149Z,7.34
2017-03-14T07:29:50.580Z,7.35
2017-03-14T07:31:00.778Z,7.43
2017-03-14T07:32:11.355Z,7.5
2017-03-14T07:33:21.167Z,7.52
2017-03-14T07:34:31.376Z,7.49
2017-03-14T07:35:40.807Z,7.58
2017-03-14T07:36:51.414Z,7.6
2017-03-14T07:38:01.991Z,7.58
2017-03-14T07:39:12.197Z,7.53
2017-03-14T07:40:22.406Z,7.53
2017-03-14T07:41:31.839Z,7.64
2017-03-14T07:42:40.894Z,7.64
2017-03-14T07:43:51.096Z,7.64
2017-03-14T07:45:00.921Z,7.82
2017-03-14T07:46:10.600Z,7.8
2017-03-14T07:47:20.414Z,7.82
2017-03-14T07:48:29.458Z,7.79
2017-03-14T07:49:38.506Z,7.92
2017-03-14T07:50:48.325Z,7.98
2017-03-14T07:51:58.131Z,8.12
2017-03-14T07:53:08.326Z,8.23
2017-03-14T07:54:17.753Z,8.3
2017-03-14T07:55:27.581Z,8.26
2017-03-14T07:56:37.778Z,8.26
2017-03-14T07:57:47.836Z,8.25
2017-03-14T07:58:58.038Z,8.28
2017-03-14T08:00:08.232Z,8.4
2017-03-14T08:01:18.042Z,8.33
2017-03-14T08:02:27.855Z,8.45
2017-03-14T08:03:38.050Z,8.48
2017-03-14T08:04:47.899Z,8.5
2017-03-14T08:05:58.096Z,8.48
2017-03-14T08:07:08.287Z,8.52
2017-03-14T08:08:18.096Z,8.56
2017-03-14T08:09:28.162Z,8.65
2017-03-14T08:10:37.998Z,8.71
2017-03-14T08:11:48.575Z,8.73
2017-03-14T08:12:58.386Z,8.68
2017-03-14T08:14:08.207Z,8.73
2017-03-14T08:15:17.246Z,8.7
2017-03-14T08:16:27.060Z,8.76
2017-03-14T08:17:36.874Z,8.83
2017-03-14T08:18:46.312Z,8.89
2017-03-14T08:19:56.498Z,8.89
2017-03-14T08:22:15.570Z,9.11
2017-03-14T08:23:24.238Z,9.17
2017-03-14T08:24:34.049Z,9.18
2017-03-14T08:25:44.253Z,9.28
2017-03-14T08:26:54.066Z,9.23
2017-03-14T08:28:03.498Z,9.21
2017-03-14T08:29:12.926Z,9.29
2017-03-14T08:30:22.353Z,9.35
2017-03-14T08:31:31.012Z,9.42
2017-03-14T08:32:40.054Z,9.46
2017-03-14T08:33:49.867Z,9.6
2017-03-14T08:34:58.911Z,9.78
2017-03-14T08:36:08.269Z,9.81
2017-03-14T08:37:17.404Z,9.93
2017-03-14T08:38:26.829Z,9.75
2017-03-14T08:39:36.553Z,9.86
2017-03-14T08:40:46.639Z,9.86
2017-03-14T08:41:56.668Z,9.78
2017-03-14T08:43:05.711Z,9.83
2017-03-14T08:44:15.398Z,9.96
2017-03-14T08:45:25.205Z,10.02
2017-03-14T08:46:34.255Z,10.15
2017-03-14T08:47:43.729Z,10.14
2017-03-14T08:48:52.774Z,10.18
2017-03-14T08:50:01.477Z,10.14
2017-03-14T08:51:10.906Z,10.09
2017-03-14T08:52:19.567Z,10.09
2017-03-14T08:53:28.617Z,10.12
2017-03-14T08:54:38.817Z,10.12
2017-03-14T08:55:48.538Z,10.18
2017-03-14T08:56:58.350Z,10.27
2017-03-14T08:58:07.831Z,10.36
2017-03-14T08:59:17.267Z,10.36
2017-03-14T09:00:26.320Z,10.41
2017-03-14T09:01:34.983Z,10.26
2017-03-14T09:02:44.027Z,10.36
2017-03-14T09:03:52.681Z,10.27
2017-03-14T09:05:02.112Z,10.26
2017-03-14T09:06:11.154Z,10.25
2017-03-14T09:07:20.070Z,10.27
2017-03-14T09:08:29.107Z,10.42
2017-03-14T09:09:38.151Z,10.36
2017-03-14T09:10:46.818Z,10.38
2017-03-14T09:11:55.498Z,10.56
2017-03-14T09:13:04.536Z,10.66
2017-03-14T09:14:13.577Z,10.74
2017-03-14T09:15:22.632Z,10.81
2017-03-14T09:16:31.682Z,10.82
2017-03-14T09:17:40.730Z,10.79
2017-03-14T09:18:49.597Z,10.76
2017-03-14T09:19:58.648Z,10.67
2017-03-14T09:21:07.319Z,10.7
2017-03-14T09:22:16.359Z,10.92
2017-03-14T09:23:25.787Z,11.02
2017-03-14T09:24:34.847Z,11.09
2017-03-14T09:25:43.899Z,11.17
2017-03-14T09:26:52.944Z,11.21
2017-03-14T09:28:01.600Z,11.4
2017-03-14T09:29:11.021Z,11.6
2017-03-14T09:30:19.932Z,11.72
2017-03-14T09:31:28.974Z,11.76
2017-03-14T09:32:37.636Z,11.94
2017-03-14T09:33:47.082Z,12.05
2017-03-14T09:34:56.229Z,12.16
2017-03-14T09:36:05.663Z,12.38
2017-03-14T09:37:14.708Z,12.38
2017-03-14T09:38:23.792Z,12.53
2017-03-14T09:39:32.893Z,12.77
2017-03-14T09:40:42.325Z,13.23
2017-03-14T09:41:52.152Z,13.33
2017-03-14T09:43:01.581Z,13.22
2017-03-14T09:44:10.630Z,13.05
2017-03-14T09:45:20.443Z,13.11
2017-03-14T09:46:29.111Z,13.22
2017-03-14T09:47:38.619Z,13.49
2017-03-14T09:48:48.051Z,13.77
2017-03-14T09:49:57.510Z,13.92
2017-03-14T09:51:07.332Z,13.96
2017-03-14T09:52:16.767Z,14.02
2017-03-14T09:53:25.459Z,14.03
2017-03-14T09:54:35.290Z,14.03
2017-03-14T09:55:44.385Z,14.15
2017-03-14T09:56:53.816Z,14.6
2017-03-14T09:58:03.252Z,15.03
2017-03-14T09:59:12.545Z,15.25
2017-03-14T10:00:22.452Z,15.31
2017-03-14T10:01:31.121Z,15.51
2017-03-14T10:02:40.938Z,15.39
2017-03-14T10:03:51.138Z,15.31
2017-03-14T10:05:00.961Z,15.14
2017-03-14T10:06:10.006Z,14.96
2017-03-14T10:07:19.472Z,14.78
2017-03-14T10:08:28.910Z,14.61
2017-03-14T10:09:37.964Z,14.72
2017-03-14T10:10:47.261Z,14.6
2017-03-14T10:11:56.698Z,14.68
2017-03-14T10:13:05.740Z,14.72
2017-03-14T10:14:15.589Z,14.8
2017-03-14T10:15:24.260Z,14.88
2017-03-14T10:16:34.073Z,14.86
2017-03-14T10:17:42.740Z,15.29
2017-03-14T10:18:52.555Z,15.53
2017-03-14T10:20:01.986Z,15.78
2017-03-14T10:21:11.035Z,16.05
2017-03-14T10:22:20.635Z,16.24
2017-03-14T10:23:29.903Z,16.58
2017-03-14T10:24:38.915Z,16.46
2017-03-14T10:25:48.176Z,16.21
2017-03-14T10:26:57.158Z,15.94
2017-03-14T10:28:06.138Z,15.78
2017-03-14T10:29:15.402Z,15.83
2017-03-14T10:30:24.962Z,15.8
2017-03-14T10:31:33.937Z,16
2017-03-14T10:32:42.902Z,16.02
2017-03-14T10:33:51.818Z,16.01
2017-03-14T10:35:00.492Z,15.93
2017-03-14T10:36:09.762Z,15.8
2017-03-14T10:37:18.728Z,15.71
2017-03-14T10:38:27.694Z,15.57
2017-03-14T10:39:37.260Z,15.65
2017-03-14T10:40:46.232Z,15.57
2017-03-14T10:41:55.201Z,15.43
2017-03-14T10:43:03.876Z,15.41
2017-03-14T10:44:12.847Z,15.28
2017-03-14T10:45:21.760Z,15.06
2017-03-14T10:46:30.741Z,14.95
2017-03-14T10:47:39.410Z,14.8
2017-03-14T10:48:48.077Z,14.83
2017-03-14T10:49:57.352Z,14.68
2017-03-14T10:51:06.928Z,14.72
2017-03-14T10:52:16.497Z,14.58
2017-03-14T10:53:25.466Z,14.57
2017-03-14T10:54:34.842Z,14.64
2017-03-14T10:55:44.416Z,14.64
2017-03-14T10:56:53.683Z,14.8
2017-03-14T10:58:02.950Z,14.78
2017-03-14T10:59:12.215Z,14.75
2017-03-14T11:00:21.476Z,14.84
2017-03-14T11:01:30.143Z,14.98
2017-03-14T11:02:39.109Z,15.31
2017-03-14T11:03:48.369Z,15.44
2017-03-14T11:04:57.030Z,15.68
2017-03-14T11:06:06.342Z,15.92
2017-03-14T11:07:15.613Z,16
2017-03-14T11:08:25.195Z,15.76
2017-03-14T11:09:34.756Z,15.71
2017-03-14T11:10:44.023Z,15.92
2017-03-14T11:11:53.645Z,15.89
2017-03-14T11:13:02.910Z,15.86
2017-03-14T11:14:11.746Z,15.92
2017-03-14T11:15:20.413Z,16.09
2017-03-14T11:16:29.380Z,16.21
2017-03-14T11:17:38.358Z,16.24
2017-03-14T11:18:47.323Z,16.53
2017-03-14T11:19:55.985Z,16.57
2017-03-14T11:21:04.649Z,16.49
2017-03-14T11:22:13.307Z,16.5
2017-03-14T11:23:21.975Z,16.5
2017-03-14T11:24:31.245Z,16.56
2017-03-14T11:25:41.061Z,16.56
2017-03-14T11:26:50.323Z,16.5
2017-03-14T11:27:59.283Z,16.45
2017-03-14T11:29:08.248Z,16.28
2017-03-14T11:30:17.206Z,16.05
2017-03-14T11:31:26.461Z,15.68
2017-03-14T11:32:35.416Z,15.41
2017-03-14T11:33:44.376Z,15.31
2017-03-14T11:34:53.042Z,15.27
2017-03-14T11:36:02.303Z,15.32
2017-03-14T11:37:11.211Z,15.2
2017-03-14T11:38:20.176Z,15.35
2017-03-14T11:39:28.836Z,15.39
2017-03-14T11:40:38.397Z,15.41
2017-03-14T11:41:47.359Z,15.38
2017-03-14T11:42:56.053Z,15.46
2017-03-14T11:44:05.331Z,15.32
2017-03-14T11:45:14.617Z,15.21
2017-03-14T11:46:23.281Z,15.19
2017-03-14T11:47:32.841Z,15.13
2017-03-14T11:48:42.348Z,15.17
2017-03-14T11:49:51.606Z,15.11
2017-03-14T11:51:00.264Z,15.23
2017-03-14T11:52:08.926Z,15.25
2017-03-14T11:53:18.192Z,15.21
2017-03-14T11:54:27.155Z,15.21
2017-03-14T11:55:36.126Z,15.21
2017-03-14T11:56:45.087Z,15.41
2017-03-14T11:57:53.748Z,15.53
2017-03-14T11:59:02.405Z,15.65
2017-03-14T12:00:11.940Z,15.69
2017-03-14T12:01:20.912Z,15.64
2017-03-14T12:02:29.871Z,15.64
2017-03-14T12:03:38.876Z,15.67
2017-03-14T12:04:47.602Z,15.76
2017-03-14T12:05:57.163Z,15.68
2017-03-14T12:07:05.828Z,15.9
2017-03-14T12:08:14.793Z,15.9
2017-03-14T12:09:23.755Z,15.87
2017-03-14T12:10:32.423Z,15.89
2017-03-14T12:11:41.632Z,15.89
2017-03-14T12:12:50.589Z,15.9
2017-03-14T12:13:59.548Z,16.07
2017-03-14T12:15:08.817Z,16.04
2017-03-14T12:16:18.399Z,15.97
2017-03-14T12:17:27.959Z,16.09
2017-03-14T12:18:36.922Z,16.33
2017-03-14T12:19:45.582Z,16.45
2017-03-14T12:20:54.843Z,16.31
2017-03-14T12:22:03.802Z,16.21
2017-03-14T12:23:13.313Z,16.33
2017-03-14T12:24:22.007Z,16.56
2017-03-14T12:25:31.272Z,16.78
2017-03-14T12:26:39.934Z,16.81
2017-03-14T12:27:48.600Z,16.64
2017-03-14T12:28:57.575Z,16.67
2017-03-14T12:30:06.235Z,16.66
2017-03-14T12:31:14.904Z,16.71
2017-03-14T12:32:24.467Z,16.68
2017-03-14T12:33:33.732Z,16.82
2017-03-14T12:34:43.585Z,16.66
2017-03-14T12:35:52.554Z,16.56
2017-03-14T12:37:01.552Z,16.38
2017-03-14T12:38:11.424Z,16.34
2017-03-14T12:39:20.730Z,16.38
2017-03-14T12:40:30.001Z,16.24
2017-03-14T12:41:39.265Z,16.09
2017-03-14T12:42:48.227Z,16.11
2017-03-14T12:43:57.189Z,16.14
2017-03-14T12:45:06.153Z,16.23
2017-03-14T12:46:15.414Z,16.02
2017-03-14T12:47:24.385Z,15.93
2017-03-14T12:48:33.645Z,15.8
2017-03-14T12:49:42.611Z,15.75
2017-03-14T12:50:51.277Z,15.83
2017-03-14T12:52:00.550Z,15.86
2017-03-14T12:53:09.518Z,15.86
2017-03-14T12:54:18.483Z,16
2017-03-14T12:55:27.460Z,15.92
2017-03-14T12:56:36.417Z,15.9
2017-03-14T12:57:45.336Z,15.94
2017-03-14T12:58:54.603Z,16.07
2017-03-14T13:00:03.875Z,16.09
2017-03-14T13:01:13.137Z,16.11
2017-03-14T13:02:21.799Z,16.27
2017-03-14T13:03:30.771Z,16.38
2017-03-14T13:04:40.032Z,16.46
2017-03-14T13:05:48.695Z,16.39
2017-03-14T13:06:57.654Z,16.39
2017-03-14T13:08:06.315Z,16.25
2017-03-14T13:09:15.223Z,16.12
2017-03-14T13:10:23.881Z,16.09
2017-03-14T13:11:32.841Z,16.14
2017-03-14T13:12:41.805Z,16.14
2017-03-14T13:13:51.368Z,16.17
2017-03-14T13:15:00.631Z,16.15
2017-03-14T13:16:09.294Z,16.2
2017-03-14T13:17:17.981Z,16.23
2017-03-14T13:18:26.672Z,16.28
2017-03-14T13:19:35.336Z,16.71
2017-03-14T13:20:43.995Z,16.85
2017-03-14T13:21:52.698Z,16.71
2017-03-14T13:23:01.958Z,16.67
2017-03-14T13:24:10.919Z,16.63
2017-03-14T13:25:20.200Z,16.73
2017-03-14T13:26:28.862Z,16.68
2017-03-14T13:27:38.121Z,16.75
2017-03-14T13:28:46.783Z,16.66
2017-03-14T13:29:55.444Z,16.57
2017-03-14T13:31:04.405Z,16.71
2017-03-14T13:32:13.971Z,16.67
2017-03-14T13:33:22.983Z,16.57
2017-03-14T13:34:32.277Z,16.49
2017-03-14T13:35:41.277Z,16.63
2017-03-14T13:36:50.559Z,16.66
2017-03-14T13:37:59.477Z,16.73
2017-03-14T13:39:08.139Z,16.58
2017-03-14T13:40:17.410Z,16.7
2017-03-14T13:41:26.671Z,16.76
2017-03-14T13:42:35.340Z,16.66
2017-03-14T13:43:44.601Z,16.82
2017-03-14T13:44:53.260Z,16.79
2017-03-14T13:46:01.922Z,16.88
2017-03-14T13:47:11.244Z,16.96
2017-03-14T13:48:19.911Z,16.97
2017-03-14T13:49:29.179Z,17.01
2017-03-14T13:50:37.840Z,17.12
2017-03-14T13:51:47.105Z,17.16
2017-03-14T13:52:56.378Z,17.25
2017-03-14T13:54:05.055Z,17.18
2017-03-14T13:55:13.716Z,17.18
2017-03-14T13:56:22.675Z,17.08
2017-03-14T13:57:31.639Z,16.94
2017-03-14T13:58:40.597Z,16.98
2017-03-14T13:59:49.558Z,16.85
2017-03-14T14:00:58.813Z,17.04
2017-03-14T14:02:07.476Z,17.07
2017-03-14T14:03:16.444Z,17.19
2017-03-14T14:04:25.409Z,17.3
2017-03-14T14:05:34.669Z,17.31
2017-03-14T14:06:43.628Z,17.38
2017-03-14T14:07:52.363Z,17.44
2017-03-14T14:09:01.371Z,17.54
2017-03-14T14:10:10.631Z,17.51
2017-03-14T14:11:20.193Z,17.49
2017-03-14T14:12:29.454Z,17.51
2017-03-14T14:13:38.422Z,17.28
2017-03-14T14:14:47.086Z,17.06
2017-03-14T14:15:57.095Z,17.06
2017-03-14T14:17:05.773Z,17.14
2017-03-14T14:18:14.516Z,17.16
2017-03-14T14:19:23.474Z,17.15
2017-03-14T14:20:32.429Z,17.23
2017-03-14T14:21:41.396Z,17.4
2017-03-14T14:22:50.061Z,17.41
2017-03-14T14:23:59.277Z,17.26
2017-03-14T14:25:07.973Z,17.25
2017-03-14T14:26:16.638Z,17.15
2017-03-14T14:27:25.298Z,16.98
2017-03-14T14:28:34.262Z,16.73
2017-03-14T14:29:43.838Z,16.79
2017-03-14T14:30:52.497Z,16.81
2017-03-14T14:32:02.088Z,16.81
2017-03-14T14:33:11.052Z,16.73
2017-03-14T14:34:20.013Z,16.81
2017-03-14T14:35:29.537Z,16.83
2017-03-14T14:36:38.801Z,16.85
2017-03-14T14:37:48.177Z,16.86
2017-03-14T14:38:57.086Z,16.88
2017-03-14T14:40:06.084Z,16.79
2017-03-14T14:41:15.655Z,16.79
2017-03-14T14:42:24.619Z,16.91
2017-03-14T14:43:34.180Z,17.08
2017-03-14T14:44:43.186Z,17.06
2017-03-14T14:45:52.497Z,17.25
2017-03-14T14:47:01.429Z,17.23
2017-03-14T14:48:10.996Z,17.18
2017-03-14T14:49:20.560Z,17.18
2017-03-14T14:50:29.820Z,17.07
2017-03-14T14:51:39.385Z,16.96
2017-03-14T14:52:48.689Z,16.97
2017-03-14T14:53:57.960Z,16.81
2017-03-14T14:55:07.223Z,16.68
2017-03-14T14:56:15.885Z,16.61
2017-03-14T14:57:25.458Z,16.67
2017-03-14T14:58:35.526Z,16.7
2017-03-14T14:59:44.496Z,16.79
2017-03-14T15:00:54.399Z,16.82
2017-03-14T15:02:04.095Z,16.78
2017-03-14T15:03:13.367Z,16.67
2017-03-14T15:04:22.027Z,16.67
2017-03-14T15:05:31.293Z,16.66
2017-03-14T15:06:41.160Z,16.66
2017-03-14T15:07:50.431Z,16.57
2017-03-14T15:08:59.701Z,16.61
2017-03-14T15:10:08.672Z,16.57
2017-03-14T15:11:17.645Z,16.5
2017-03-14T15:12:27.325Z,16.58
2017-03-14T15:13:36.674Z,16.61
2017-03-14T15:14:45.937Z,16.68
2017-03-14T15:15:55.210Z,16.75
2017-03-14T15:17:03.877Z,16.75